TimeEST,TemperatureF,Dew PointF,Humidity,Sea Level PressureIn,VisibilityMPH,Wind Direction,Wind SpeedMPH,Gust SpeedMPH,PrecipitationIn,Events,Conditions,WindDirDegrees,DateUTC
12:53 AM,32.0,27.0,82,30.35,10.0,WNW,4.6,-,N/A,,Clear,300,2013-01-05 05:53:00
1:53 AM,33.1,24.1,70,30.35,10.0,NNW,6.9,-,N/A,,Clear,330,2013-01-05 06:53:00
2:53 AM,30.0,21.9,72,30.35,10.0,North,6.9,-,N/A,,Clear,360,2013-01-05 07:53:00
3:53 AM,32.0,23.0,69,30.35,10.0,North,6.9,-,N/A,,Clear,350,2013-01-05 08:53:00
4:53 AM,28.9,23.0,78,30.36,10.0,West,3.5,-,N/A,,Clear,280,2013-01-05 09:53:00
5:53 AM,28.0,24.1,85,30.35,10.0,Calm,Calm,-,N/A,,Clear,0,2013-01-05 10:53:00
6:53 AM,25.0,21.9,88,30.38,10.0,Calm,Calm,-,N/A,,Clear,0,2013-01-05 11:53:00
7:53 AM,25.0,23.0,92,30.41,10.0,Calm,Calm,-,N/A,,Clear,0,2013-01-05 12:53:00
8:53 AM,35.1,28.0,76,30.42,10.0,NNW,3.5,-,N/A,,Clear,340,2013-01-05 13:53:00
9:53 AM,41.0,28.0,60,30.43,10.0,Calm,Calm,-,N/A,,Clear,0,2013-01-05 14:53:00
10:53 AM,45.0,25.0,46,30.42,10.0,NE,3.5,-,N/A,,Clear,40,2013-01-05 15:53:00
11:53 AM,48.9,23.0,36,30.39,10.0,ENE,3.5,-,N/A,,Clear,60,2013-01-05 16:53:00
12:53 PM,51.1,24.1,35,30.35,10.0,Calm,Calm,-,N/A,,Clear,0,2013-01-05 17:53:00
1:53 PM,53.1,25.0,34,30.32,10.0,SSE,4.6,-,N/A,,Clear,160,2013-01-05 18:53:00
2:53 PM,54.0,25.0,33,30.31,10.0,Variable,3.5,-,N/A,,Clear,0,2013-01-05 19:53:00
3:53 PM,54.0,24.1,31,30.31,10.0,South,3.5,-,N/A,,Clear,190,2013-01-05 20:53:00
4:53 PM,52.0,26.1,37,30.30,10.0,Calm,Calm,-,N/A,,Clear,0,2013-01-05 21:53:00
5:53 PM,48.9,32.0,52,30.31,10.0,Calm,Calm,-,N/A,,Clear,0,2013-01-05 22:53:00
6:53 PM,48.0,33.1,56,30.32,10.0,Calm,Calm,-,N/A,,Clear,0,2013-01-05 23:53:00
7:53 PM,46.9,36.0,66,30.33,10.0,Calm,Calm,-,N/A,,Clear,0,2013-01-06 00:53:00
8:53 PM,46.9,36.0,66,30.33,10.0,Calm,Calm,-,N/A,,Mostly Cloudy,0,2013-01-06 01:53:00
9:53 PM,46.9,37.9,71,30.32,10.0,Calm,Calm,-,N/A,,Overcast,0,2013-01-06 02:53:00
10:53 PM,45.0,37.9,76,30.31,10.0,South,4.6,-,0.00,,Partly Cloudy,190,2013-01-06 03:53:00
11:53 PM,46.9,35.1,63,30.28,10.0,SSE,3.5,-,N/A,,Overcast,150,2013-01-06 04:53:00